sensor_id;sensor_type;location;lat;lon;timestamp;P1;durP1;ratioP1;P2;durP2;ratioP2
76405;SDS011;65234;50.044;19.258;2023-04-24T00:02:11;205.05;;;195.20;;
76405;SDS011;65234;50.044;19.258;2023-04-24T00:04:36;206.45;;;196.82;;
76405;SDS011;65234;50.044;19.258;2023-04-24T00:07:04;208.25;;;198.27;;
76405;SDS011;65234;50.044;19.258;2023-04-24T00:09:29;208.00;;;197.80;;
76405;SDS011;65234;50.044;19.258;2023-04-24T00:11:55;205.43;;;195.70;;
76405;SDS011;65234;50.044;19.258;2023-04-24T00:14:20;211.93;;;201.52;;
76405;SDS011;65234;50.044;19.258;2023-04-24T00:16:46;203.60;;;193.73;;
76405;SDS011;65234;50.044;19.258;2023-04-24T00:19:11;208.88;;;199.10;;
76405;SDS011;65234;50.044;19.258;2023-04-24T00:21:37;209.10;;;198.70;;
76405;SDS011;65234;50.044;19.258;2023-04-24T00:24:04;204.80;;;195.20;;
76405;SDS011;65234;50.044;19.258;2023-04-24T00:26:30;208.73;;;199.00;;
76405;SDS011;65234;50.044;19.258;2023-04-24T00:28:55;206.98;;;197.10;;
76405;SDS011;65234;50.044;19.258;2023-04-24T00:31:21;202.07;;;192.52;;
76405;SDS011;65234;50.044;19.258;2023-04-24T00:33:46;209.15;;;199.13;;
76405;SDS011;65234;50.044;19.258;2023-04-24T00:36:12;201.77;;;192.48;;
76405;SDS011;65234;50.044;19.258;2023-04-24T00:38:37;201.00;;;191.73;;
76405;SDS011;65234;50.044;19.258;2023-04-24T00:41:04;205.57;;;195.85;;
76405;SDS011;65234;50.044;19.258;2023-04-24T00:43:29;209.32;;;199.10;;
76405;SDS011;65234;50.044;19.258;2023-04-24T00:45:55;203.95;;;194.32;;
76405;SDS011;65234;50.044;19.258;2023-04-24T00:48:21;206.27;;;196.55;;
76405;SDS011;65234;50.044;19.258;2023-04-24T00:50:46;203.18;;;193.65;;
76405;SDS011;65234;50.044;19.258;2023-04-24T00:53:12;206.30;;;196.75;;
76405;SDS011;65234;50.044;19.258;2023-04-24T00:55:37;204.00;;;194.20;;
76405;SDS011;65234;50.044;19.258;2023-04-24T00:58:04;204.80;;;195.40;;
76405;SDS011;65234;50.044;19.258;2023-04-24T01:00:30;206.23;;;196.23;;
76405;SDS011;65234;50.044;19.258;2023-04-24T01:02:56;203.88;;;194.38;;
76405;SDS011;65234;50.044;19.258;2023-04-24T01:05:23;200.77;;;191.52;;
76405;SDS011;65234;50.044;19.258;2023-04-24T01:07:48;205.00;;;195.75;;
76405;SDS011;65234;50.044;19.258;2023-04-24T01:10:14;204.15;;;194.52;;
76405;SDS011;65234;50.044;19.258;2023-04-24T01:12:40;206.70;;;196.70;;
76405;SDS011;65234;50.044;19.258;2023-04-24T01:15:08;208.13;;;198.57;;
76405;SDS011;65234;50.044;19.258;2023-04-24T01:17:33;203.40;;;193.40;;
76405;SDS011;65234;50.044;19.258;2023-04-24T01:19:59;205.32;;;195.70;;
76405;SDS011;65234;50.044;19.258;2023-04-24T01:22:26;200.40;;;190.85;;
76405;SDS011;65234;50.044;19.258;2023-04-24T01:24:58;207.48;;;197.05;;
76405;SDS011;65234;50.044;19.258;2023-04-24T01:27:23;201.02;;;191.52;;
76405;SDS011;65234;50.044;19.258;2023-04-24T01:29:49;202.75;;;193.15;;
76405;SDS011;65234;50.044;19.258;2023-04-24T01:32:14;201.82;;;192.27;;
76405;SDS011;65234;50.044;19.258;2023-04-24T01:34:40;198.85;;;189.57;;
76405;SDS011;65234;50.044;19.258;2023-04-24T01:37:06;202.38;;;193.00;;
76405;SDS011;65234;50.044;19.258;2023-04-24T01:39:33;200.63;;;191.13;;
76405;SDS011;65234;50.044;19.258;2023-04-24T01:41:59;197.52;;;188.50;;
76405;SDS011;65234;50.044;19.258;2023-04-24T01:44:24;193.85;;;184.52;;
76405;SDS011;65234;50.044;19.258;2023-04-24T01:46:50;199.65;;;190.32;;
76405;SDS011;65234;50.044;19.258;2023-04-24T01:49:16;202.77;;;193.20;;
76405;SDS011;65234;50.044;19.258;2023-04-24T01:51:41;195.95;;;186.57;;
76405;SDS011;65234;50.044;19.258;2023-04-24T01:54:07;196.93;;;187.73;;
76405;SDS011;65234;50.044;19.258;2023-04-24T01:56:34;195.93;;;186.75;;
76405;SDS011;65234;50.044;19.258;2023-04-24T01:59:00;195.27;;;186.10;;
76405;SDS011;65234;50.044;19.258;2023-04-24T02:01:27;193.02;;;184.13;;
76405;SDS011;65234;50.044;19.258;2023-04-24T02:03:58;193.93;;;185.00;;
76405;SDS011;65234;50.044;19.258;2023-04-24T02:06:23;194.15;;;185.60;;
76405;SDS011;65234;50.044;19.258;2023-04-24T02:08:49;191.70;;;182.85;;
76405;SDS011;65234;50.044;19.258;2023-04-24T02:11:14;198.32;;;189.18;;
76405;SDS011;65234;50.044;19.258;2023-04-24T02:13:41;194.30;;;185.20;;
76405;SDS011;65234;50.044;19.258;2023-04-24T02:16:07;192.38;;;183.45;;
76405;SDS011;65234;50.044;19.258;2023-04-24T02:18:33;195.52;;;185.90;;
76405;SDS011;65234;50.044;19.258;2023-04-24T02:20:58;190.02;;;181.40;;
76405;SDS011;65234;50.044;19.258;2023-04-24T02:23:24;193.38;;;184.60;;
76405;SDS011;65234;50.044;19.258;2023-04-24T02:25:49;194.70;;;186.13;;
76405;SDS011;65234;50.044;19.258;2023-04-24T02:28:15;191.23;;;182.82;;
76405;SDS011;65234;50.044;19.258;2023-04-24T02:30:41;195.30;;;186.30;;
76405;SDS011;65234;50.044;19.258;2023-04-24T02:33:07;191.55;;;182.88;;
76405;SDS011;65234;50.044;19.258;2023-04-24T02:35:33;187.30;;;179.00;;
76405;SDS011;65234;50.044;19.258;2023-04-24T02:37:58;182.30;;;174.25;;
76405;SDS011;65234;50.044;19.258;2023-04-24T02:40:23;192.07;;;182.75;;
76405;SDS011;65234;50.044;19.258;2023-04-24T02:42:49;191.15;;;182.35;;
76405;SDS011;65234;50.044;19.258;2023-04-24T02:45:15;185.95;;;177.55;;
76405;SDS011;65234;50.044;19.258;2023-04-24T02:47:42;194.77;;;185.95;;
76405;SDS011;65234;50.044;19.258;2023-04-24T02:50:07;190.73;;;181.82;;
76405;SDS011;65234;50.044;19.258;2023-04-24T02:52:33;186.15;;;177.73;;
76405;SDS011;65234;50.044;19.258;2023-04-24T02:54:58;186.88;;;178.57;;
76405;SDS011;65234;50.044;19.258;2023-04-24T02:57:24;183.70;;;175.05;;
76405;SDS011;65234;50.044;19.258;2023-04-24T02:59:49;192.57;;;184.10;;
76405;SDS011;65234;50.044;19.258;2023-04-24T03:02:15;189.88;;;181.30;;
76405;SDS011;65234;50.044;19.258;2023-04-24T03:04:42;181.32;;;172.75;;
76405;SDS011;65234;50.044;19.258;2023-04-24T03:07:07;186.05;;;177.60;;
76405;SDS011;65234;50.044;19.258;2023-04-24T03:09:33;179.55;;;171.30;;
76405;SDS011;65234;50.044;19.258;2023-04-24T03:11:58;181.77;;;173.15;;
76405;SDS011;65234;50.044;19.258;2023-04-24T03:14:24;180.68;;;172.50;;
76405;SDS011;65234;50.044;19.258;2023-04-24T03:16:49;181.57;;;173.65;;
76405;SDS011;65234;50.044;19.258;2023-04-24T03:19:15;181.27;;;173.07;;
76405;SDS011;65234;50.044;19.258;2023-04-24T03:21:42;180.75;;;172.75;;
76405;SDS011;65234;50.044;19.258;2023-04-24T03:24:08;180.73;;;172.30;;
76405;SDS011;65234;50.044;19.258;2023-04-24T03:26:33;179.07;;;171.00;;
76405;SDS011;65234;50.044;19.258;2023-04-24T03:28:59;181.43;;;173.05;;
76405;SDS011;65234;50.044;19.258;2023-04-24T03:31:24;179.75;;;171.60;;
76405;SDS011;65234;50.044;19.258;2023-04-24T03:33:50;181.63;;;173.45;;
76405;SDS011;65234;50.044;19.258;2023-04-24T03:36:15;180.07;;;172.02;;
76405;SDS011;65234;50.044;19.258;2023-04-24T03:38:42;180.65;;;172.57;;
76405;SDS011;65234;50.044;19.258;2023-04-24T03:41:08;180.00;;;171.88;;
76405;SDS011;65234;50.044;19.258;2023-04-24T03:43:33;174.80;;;166.80;;
76405;SDS011;65234;50.044;19.258;2023-04-24T03:45:59;182.20;;;173.10;;
76405;SDS011;65234;50.044;19.258;2023-04-24T03:48:24;175.93;;;167.93;;
76405;SDS011;65234;50.044;19.258;2023-04-24T03:50:50;182.30;;;173.02;;
76405;SDS011;65234;50.044;19.258;2023-04-24T03:53:15;175.40;;;167.50;;
76405;SDS011;65234;50.044;19.258;2023-04-24T03:55:42;179.15;;;170.35;;
76405;SDS011;65234;50.044;19.258;2023-04-24T03:58:08;178.77;;;170.57;;
76405;SDS011;65234;50.044;19.258;2023-04-24T04:00:33;178.77;;;170.05;;
76405;SDS011;65234;50.044;19.258;2023-04-24T04:02:59;174.10;;;165.95;;
76405;SDS011;65234;50.044;19.258;2023-04-24T04:05:24;177.25;;;169.05;;
76405;SDS011;65234;50.044;19.258;2023-04-24T04:07:50;180.98;;;171.98;;
76405;SDS011;65234;50.044;19.258;2023-04-24T04:10:15;177.88;;;169.65;;
76405;SDS011;65234;50.044;19.258;2023-04-24T04:12:42;169.95;;;162.27;;
76405;SDS011;65234;50.044;19.258;2023-04-24T04:15:08;176.85;;;168.40;;
76405;SDS011;65234;50.044;19.258;2023-04-24T04:17:34;176.63;;;168.70;;
76405;SDS011;65234;50.044;19.258;2023-04-24T04:20:00;176.85;;;168.90;;
76405;SDS011;65234;50.044;19.258;2023-04-24T04:22:25;175.60;;;167.35;;
76405;SDS011;65234;50.044;19.258;2023-04-24T04:24:57;178.00;;;169.65;;
76405;SDS011;65234;50.044;19.258;2023-04-24T04:27:22;172.20;;;164.35;;
76405;SDS011;65234;50.044;19.258;2023-04-24T04:29:49;178.68;;;170.52;;
76405;SDS011;65234;50.044;19.258;2023-04-24T04:32:14;171.93;;;163.88;;
76405;SDS011;65234;50.044;19.258;2023-04-24T04:34:40;175.13;;;166.25;;
76405;SDS011;65234;50.044;19.258;2023-04-24T04:37:05;173.80;;;165.93;;
76405;SDS011;65234;50.044;19.258;2023-04-24T04:39:31;170.52;;;162.95;;
76405;SDS011;65234;50.044;19.258;2023-04-24T04:41:56;167.07;;;159.70;;
76405;SDS011;65234;50.044;19.258;2023-04-24T04:44:22;169.60;;;161.43;;
76405;SDS011;65234;50.044;19.258;2023-04-24T04:46:49;169.82;;;162.10;;
76405;SDS011;65234;50.044;19.258;2023-04-24T04:49:14;173.02;;;164.85;;
76405;SDS011;65234;50.044;19.258;2023-04-24T04:51:40;175.95;;;167.60;;
76405;SDS011;65234;50.044;19.258;2023-04-24T04:54:06;170.45;;;162.20;;
76405;SDS011;65234;50.044;19.258;2023-04-24T04:56:31;174.85;;;166.57;;
76405;SDS011;65234;50.044;19.258;2023-04-24T04:58:57;176.00;;;167.93;;
76405;SDS011;65234;50.044;19.258;2023-04-24T05:01:22;170.18;;;162.65;;
76405;SDS011;65234;50.044;19.258;2023-04-24T05:03:49;171.85;;;163.43;;
76405;SDS011;65234;50.044;19.258;2023-04-24T05:06:14;176.98;;;168.18;;
76405;SDS011;65234;50.044;19.258;2023-04-24T05:08:40;173.27;;;165.15;;
76405;SDS011;65234;50.044;19.258;2023-04-24T05:11:05;172.85;;;165.20;;
76405;SDS011;65234;50.044;19.258;2023-04-24T05:13:31;172.75;;;164.70;;
76405;SDS011;65234;50.044;19.258;2023-04-24T05:15:57;171.52;;;163.85;;
76405;SDS011;65234;50.044;19.258;2023-04-24T05:18:22;173.63;;;165.85;;
76405;SDS011;65234;50.044;19.258;2023-04-24T05:20:50;175.73;;;167.82;;
76405;SDS011;65234;50.044;19.258;2023-04-24T05:23:15;176.52;;;168.20;;
76405;SDS011;65234;50.044;19.258;2023-04-24T05:25:41;178.40;;;170.27;;
76405;SDS011;65234;50.044;19.258;2023-04-24T05:28:06;178.55;;;170.38;;
76405;SDS011;65234;50.044;19.258;2023-04-24T05:30:32;180.98;;;172.70;;
76405;SDS011;65234;50.044;19.258;2023-04-24T05:32:57;185.32;;;176.98;;
76405;SDS011;65234;50.044;19.258;2023-04-24T05:35:23;180.75;;;172.25;;
76405;SDS011;65234;50.044;19.258;2023-04-24T05:37:50;187.43;;;178.77;;
76405;SDS011;65234;50.044;19.258;2023-04-24T05:40:15;185.48;;;177.18;;
76405;SDS011;65234;50.044;19.258;2023-04-24T05:42:41;182.80;;;174.50;;
76405;SDS011;65234;50.044;19.258;2023-04-24T05:45:06;181.82;;;173.82;;
76405;SDS011;65234;50.044;19.258;2023-04-24T05:47:32;173.38;;;165.77;;
76405;SDS011;65234;50.044;19.258;2023-04-24T05:49:58;187.93;;;179.57;;
76405;SDS011;65234;50.044;19.258;2023-04-24T05:52:23;194.77;;;185.65;;
76405;SDS011;65234;50.044;19.258;2023-04-24T05:54:50;195.65;;;186.45;;
76405;SDS011;65234;50.044;19.258;2023-04-24T05:57:16;190.75;;;182.02;;
76405;SDS011;65234;50.044;19.258;2023-04-24T05:59:41;195.75;;;185.95;;
76405;SDS011;65234;50.044;19.258;2023-04-24T06:02:07;193.02;;;184.13;;
76405;SDS011;65234;50.044;19.258;2023-04-24T06:04:32;201.38;;;191.80;;
76405;SDS011;65234;50.044;19.258;2023-04-24T06:06:58;201.13;;;191.10;;
76405;SDS011;65234;50.044;19.258;2023-04-24T06:09:24;207.02;;;196.90;;
76405;SDS011;65234;50.044;19.258;2023-04-24T06:11:51;203.05;;;194.23;;
76405;SDS011;65234;50.044;19.258;2023-04-24T06:14:16;201.45;;;192.73;;
76405;SDS011;65234;50.044;19.258;2023-04-24T06:16:42;207.77;;;197.70;;
76405;SDS011;65234;50.044;19.258;2023-04-24T06:19:07;210.95;;;201.00;;
